sensor_id;sensor_type;location;lat;lon;timestamp;P1;durP1;ratioP1;P2;durP2;ratioP2
6348;SDS011;3207;42.648;23.406;2023-11-19T00:02:13;15.27;;;9.93;;
6348;SDS011;3207;42.648;23.406;2023-11-19T00:04:40;10.57;;;8.50;;
6348;SDS011;3207;42.648;23.406;2023-11-19T00:07:07;11.93;;;8.47;;
6348;SDS011;3207;42.648;23.406;2023-11-19T00:09:35;15.03;;;8.70;;
6348;SDS011;3207;42.648;23.406;2023-11-19T00:12:02;16.27;;;8.07;;
6348;SDS011;3207;42.648;23.406;2023-11-19T00:14:29;18.57;;;8.87;;
6348;SDS011;3207;42.648;23.406;2023-11-19T00:16:57;10.03;;;7.33;;
6348;SDS011;3207;42.648;23.406;2023-11-19T00:19:24;15.53;;;8.93;;
6348;SDS011;3207;42.648;23.406;2023-11-19T00:21:51;11.53;;;7.50;;
6348;SDS011;3207;42.648;23.406;2023-11-19T00:24:18;9.87;;;7.70;;
6348;SDS011;3207;42.648;23.406;2023-11-19T00:26:45;12.50;;;8.03;;
6348;SDS011;3207;42.648;23.406;2023-11-19T00:29:12;11.77;;;7.57;;
6348;SDS011;3207;42.648;23.406;2023-11-19T00:31:38;11.77;;;8.20;;
6348;SDS011;3207;42.648;23.406;2023-11-19T00:34:08;14.33;;;8.33;;
6348;SDS011;3207;42.648;23.406;2023-11-19T00:36:35;13.20;;;7.93;;
6348;SDS011;3207;42.648;23.406;2023-11-19T00:39:02;18.37;;;9.10;;
6348;SDS011;3207;42.648;23.406;2023-11-19T00:41:29;13.27;;;7.57;;
6348;SDS011;3207;42.648;23.406;2023-11-19T00:43:55;11.00;;;8.10;;
6348;SDS011;3207;42.648;23.406;2023-11-19T00:46:22;17.27;;;8.13;;
6348;SDS011;3207;42.648;23.406;2023-11-19T00:48:49;11.00;;;6.90;;
6348;SDS011;3207;42.648;23.406;2023-11-19T00:51:17;11.40;;;8.13;;
6348;SDS011;3207;42.648;23.406;2023-11-19T00:53:44;12.90;;;7.20;;
6348;SDS011;3207;42.648;23.406;2023-11-19T00:56:10;9.20;;;6.87;;
6348;SDS011;3207;42.648;23.406;2023-11-19T00:58:37;10.53;;;7.53;;
6348;SDS011;3207;42.648;23.406;2023-11-19T01:01:04;9.07;;;6.70;;
6348;SDS011;3207;42.648;23.406;2023-11-19T01:03:31;11.60;;;7.43;;
6348;SDS011;3207;42.648;23.406;2023-11-19T01:05:58;10.90;;;7.33;;
6348;SDS011;3207;42.648;23.406;2023-11-19T01:08:26;9.97;;;6.97;;
6348;SDS011;3207;42.648;23.406;2023-11-19T01:10:52;10.27;;;7.20;;
6348;SDS011;3207;42.648;23.406;2023-11-19T01:13:19;9.60;;;7.30;;
6348;SDS011;3207;42.648;23.406;2023-11-19T01:15:46;8.17;;;6.00;;
6348;SDS011;3207;42.648;23.406;2023-11-19T01:18:13;14.43;;;7.80;;
6348;SDS011;3207;42.648;23.406;2023-11-19T01:20:39;10.13;;;6.53;;
6348;SDS011;3207;42.648;23.406;2023-11-19T01:23:06;9.80;;;7.17;;
6348;SDS011;3207;42.648;23.406;2023-11-19T01:25:34;8.70;;;6.13;;
6348;SDS011;3207;42.648;23.406;2023-11-19T01:28:01;10.83;;;7.67;;
6348;SDS011;3207;42.648;23.406;2023-11-19T01:30:27;10.13;;;7.27;;
6348;SDS011;3207;42.648;23.406;2023-11-19T01:32:54;11.53;;;7.83;;
6348;SDS011;3207;42.648;23.406;2023-11-19T01:35:21;11.30;;;7.13;;
6348;SDS011;3207;42.648;23.406;2023-11-19T01:37:48;14.47;;;9.70;;
6348;SDS011;3207;42.648;23.406;2023-11-19T01:40:19;11.87;;;8.00;;
6348;SDS011;3207;42.648;23.406;2023-11-19T01:42:47;11.73;;;8.77;;
6348;SDS011;3207;42.648;23.406;2023-11-19T01:45:19;13.60;;;8.57;;
6348;SDS011;3207;42.648;23.406;2023-11-19T01:47:47;9.80;;;7.73;;
6348;SDS011;3207;42.648;23.406;2023-11-19T01:50:14;10.43;;;8.20;;
6348;SDS011;3207;42.648;23.406;2023-11-19T01:52:41;12.70;;;8.80;;
6348;SDS011;3207;42.648;23.406;2023-11-19T01:55:07;10.03;;;7.90;;
6348;SDS011;3207;42.648;23.406;2023-11-19T01:57:35;10.80;;;7.70;;
6348;SDS011;3207;42.648;23.406;2023-11-19T02:00:05;12.13;;;7.70;;
6348;SDS011;3207;42.648;23.406;2023-11-19T02:02:36;12.73;;;7.27;;
6348;SDS011;3207;42.648;23.406;2023-11-19T02:05:05;9.70;;;7.37;;
6348;SDS011;3207;42.648;23.406;2023-11-19T02:07:31;12.13;;;7.00;;
6348;SDS011;3207;42.648;23.406;2023-11-19T02:09:58;10.47;;;7.60;;
6348;SDS011;3207;42.648;23.406;2023-11-19T02:12:26;15.00;;;8.10;;
6348;SDS011;3207;42.648;23.406;2023-11-19T02:14:53;15.60;;;8.63;;
6348;SDS011;3207;42.648;23.406;2023-11-19T02:17:28;12.20;;;7.73;;
6348;SDS011;3207;42.648;23.406;2023-11-19T02:19:56;14.77;;;9.77;;
6348;SDS011;3207;42.648;23.406;2023-11-19T02:22:23;10.63;;;7.73;;
6348;SDS011;3207;42.648;23.406;2023-11-19T02:24:51;12.30;;;8.93;;
6348;SDS011;3207;42.648;23.406;2023-11-19T02:27:19;11.93;;;8.07;;
6348;SDS011;3207;42.648;23.406;2023-11-19T02:29:50;12.53;;;7.87;;
6348;SDS011;3207;42.648;23.406;2023-11-19T02:32:18;12.50;;;8.03;;
6348;SDS011;3207;42.648;23.406;2023-11-19T02:34:45;16.57;;;8.10;;
6348;SDS011;3207;42.648;23.406;2023-11-19T02:37:12;14.63;;;8.47;;
6348;SDS011;3207;42.648;23.406;2023-11-19T02:39:40;11.40;;;7.53;;
6348;SDS011;3207;42.648;23.406;2023-11-19T02:42:07;9.90;;;6.77;;
6348;SDS011;3207;42.648;23.406;2023-11-19T02:44:34;13.33;;;8.00;;
6348;SDS011;3207;42.648;23.406;2023-11-19T02:47:02;10.03;;;6.80;;
6348;SDS011;3207;42.648;23.406;2023-11-19T02:49:28;8.63;;;6.43;;
6348;SDS011;3207;42.648;23.406;2023-11-19T02:51:55;11.17;;;7.60;;
6348;SDS011;3207;42.648;23.406;2023-11-19T02:54:21;10.77;;;8.60;;
6348;SDS011;3207;42.648;23.406;2023-11-19T02:56:52;13.63;;;8.60;;
6348;SDS011;3207;42.648;23.406;2023-11-19T02:59:24;12.53;;;7.50;;
6348;SDS011;3207;42.648;23.406;2023-11-19T03:01:53;10.90;;;7.20;;
6348;SDS011;3207;42.648;23.406;2023-11-19T03:04:21;11.17;;;7.23;;
6348;SDS011;3207;42.648;23.406;2023-11-19T03:06:48;11.93;;;7.87;;
6348;SDS011;3207;42.648;23.406;2023-11-19T03:09:15;19.07;;;8.13;;
6348;SDS011;3207;42.648;23.406;2023-11-19T03:11:41;14.20;;;8.73;;
6348;SDS011;3207;42.648;23.406;2023-11-19T03:14:08;15.07;;;8.60;;
6348;SDS011;3207;42.648;23.406;2023-11-19T03:16:34;10.77;;;7.90;;
6348;SDS011;3207;42.648;23.406;2023-11-19T03:19:01;10.70;;;7.37;;
6348;SDS011;3207;42.648;23.406;2023-11-19T03:21:30;14.40;;;7.77;;
6348;SDS011;3207;42.648;23.406;2023-11-19T03:23:57;11.40;;;7.30;;
6348;SDS011;3207;42.648;23.406;2023-11-19T03:26:25;11.63;;;7.97;;
6348;SDS011;3207;42.648;23.406;2023-11-19T03:28:52;10.47;;;7.20;;
6348;SDS011;3207;42.648;23.406;2023-11-19T03:31:19;10.33;;;7.13;;
6348;SDS011;3207;42.648;23.406;2023-11-19T03:33:46;12.53;;;7.77;;
6348;SDS011;3207;42.648;23.406;2023-11-19T03:36:12;8.10;;;6.57;;
6348;SDS011;3207;42.648;23.406;2023-11-19T03:38:40;8.60;;;6.00;;
6348;SDS011;3207;42.648;23.406;2023-11-19T03:41:10;8.40;;;6.30;;
6348;SDS011;3207;42.648;23.406;2023-11-19T03:43:37;7.73;;;6.10;;
6348;SDS011;3207;42.648;23.406;2023-11-19T03:46:04;10.73;;;6.23;;
6348;SDS011;3207;42.648;23.406;2023-11-19T03:48:31;10.60;;;6.90;;
6348;SDS011;3207;42.648;23.406;2023-11-19T03:50:58;8.53;;;6.33;;
6348;SDS011;3207;42.648;23.406;2023-11-19T03:53:24;10.40;;;6.97;;
6348;SDS011;3207;42.648;23.406;2023-11-19T03:55:52;12.03;;;6.97;;
6348;SDS011;3207;42.648;23.406;2023-11-19T03:58:19;10.67;;;7.63;;
6348;SDS011;3207;42.648;23.406;2023-11-19T04:00:45;8.50;;;6.50;;
6348;SDS011;3207;42.648;23.406;2023-11-19T04:03:12;8.90;;;6.60;;
6348;SDS011;3207;42.648;23.406;2023-11-19T04:05:39;8.20;;;6.40;;
6348;SDS011;3207;42.648;23.406;2023-11-19T04:08:05;8.67;;;6.10;;
6348;SDS011;3207;42.648;23.406;2023-11-19T04:10:32;9.77;;;6.50;;
6348;SDS011;3207;42.648;23.406;2023-11-19T04:13:00;6.90;;;5.77;;
6348;SDS011;3207;42.648;23.406;2023-11-19T04:15:27;8.20;;;5.40;;
6348;SDS011;3207;42.648;23.406;2023-11-19T04:17:54;10.03;;;6.67;;
6348;SDS011;3207;42.648;23.406;2023-11-19T04:20:20;11.47;;;6.33;;
6348;SDS011;3207;42.648;23.406;2023-11-19T04:22:47;11.33;;;6.27;;
6348;SDS011;3207;42.648;23.406;2023-11-19T04:25:14;6.13;;;5.53;;
6348;SDS011;3207;42.648;23.406;2023-11-19T04:27:41;10.30;;;6.63;;
6348;SDS011;3207;42.648;23.406;2023-11-19T04:30:10;9.60;;;5.83;;
6348;SDS011;3207;42.648;23.406;2023-11-19T04:32:36;8.70;;;6.57;;
6348;SDS011;3207;42.648;23.406;2023-11-19T04:35:03;7.57;;;6.43;;
6348;SDS011;3207;42.648;23.406;2023-11-19T04:37:30;15.70;;;7.73;;
6348;SDS011;3207;42.648;23.406;2023-11-19T04:39:56;10.07;;;7.60;;
6348;SDS011;3207;42.648;23.406;2023-11-19T04:42:23;10.17;;;7.97;;
6348;SDS011;3207;42.648;23.406;2023-11-19T04:44:50;12.33;;;8.07;;
6348;SDS011;3207;42.648;23.406;2023-11-19T04:47:18;11.57;;;7.80;;
6348;SDS011;3207;42.648;23.406;2023-11-19T04:49:44;10.63;;;8.03;;
6348;SDS011;3207;42.648;23.406;2023-11-19T04:52:11;10.63;;;7.07;;
6348;SDS011;3207;42.648;23.406;2023-11-19T04:54:40;13.17;;;7.50;;
6348;SDS011;3207;42.648;23.406;2023-11-19T04:57:07;10.13;;;7.03;;
6348;SDS011;3207;42.648;23.406;2023-11-19T04:59:34;10.90;;;7.00;;
6348;SDS011;3207;42.648;23.406;2023-11-19T05:02:01;10.77;;;7.40;;
6348;SDS011;3207;42.648;23.406;2023-11-19T05:04:30;13.80;;;6.53;;
6348;SDS011;3207;42.648;23.406;2023-11-19T05:06:57;7.13;;;6.23;;
6348;SDS011;3207;42.648;23.406;2023-11-19T05:09:23;9.03;;;6.00;;
6348;SDS011;3207;42.648;23.406;2023-11-19T05:11:50;7.53;;;5.27;;
6348;SDS011;3207;42.648;23.406;2023-11-19T05:14:16;7.83;;;6.07;;
6348;SDS011;3207;42.648;23.406;2023-11-19T05:16:43;7.40;;;5.37;;
6348;SDS011;3207;42.648;23.406;2023-11-19T05:19:13;7.73;;;6.33;;
6348;SDS011;3207;42.648;23.406;2023-11-19T05:21:42;8.77;;;5.77;;
6348;SDS011;3207;42.648;23.406;2023-11-19T05:24:09;7.33;;;5.57;;
6348;SDS011;3207;42.648;23.406;2023-11-19T05:26:36;8.57;;;5.53;;
6348;SDS011;3207;42.648;23.406;2023-11-19T05:29:03;6.50;;;5.63;;
6348;SDS011;3207;42.648;23.406;2023-11-19T05:31:29;6.13;;;5.50;;
6348;SDS011;3207;42.648;23.406;2023-11-19T05:33:56;7.93;;;6.13;;
6348;SDS011;3207;42.648;23.406;2023-11-19T05:36:22;8.57;;;6.83;;
6348;SDS011;3207;42.648;23.406;2023-11-19T05:38:50;14.37;;;8.17;;
6348;SDS011;3207;42.648;23.406;2023-11-19T05:41:17;16.03;;;8.63;;
6348;SDS011;3207;42.648;23.406;2023-11-19T05:43:43;16.40;;;10.10;;
6348;SDS011;3207;42.648;23.406;2023-11-19T05:46:10;16.53;;;10.37;;
6348;SDS011;3207;42.648;23.406;2023-11-19T05:48:38;13.13;;;8.90;;
6348;SDS011;3207;42.648;23.406;2023-11-19T05:51:05;12.97;;;9.40;;
6348;SDS011;3207;42.648;23.406;2023-11-19T05:53:31;14.27;;;9.47;;
6348;SDS011;3207;42.648;23.406;2023-11-19T05:56:00;12.87;;;8.43;;
6348;SDS011;3207;42.648;23.406;2023-11-19T05:58:29;11.40;;;8.90;;
6348;SDS011;3207;42.648;23.406;2023-11-19T06:00:57;11.73;;;8.27;;
6348;SDS011;3207;42.648;23.406;2023-11-19T06:03:26;14.30;;;8.07;;
6348;SDS011;3207;42.648;23.406;2023-11-19T06:05:53;11.67;;;8.27;;
6348;SDS011;3207;42.648;23.406;2023-11-19T06:08:20;10.67;;;8.13;;
6348;SDS011;3207;42.648;23.406;2023-11-19T06:10:47;10.17;;;7.57;;
6348;SDS011;3207;42.648;23.406;2023-11-19T06:13:17;11.10;;;8.40;;
6348;SDS011;3207;42.648;23.406;2023-11-19T06:15:44;13.30;;;9.47;;
6348;SDS011;3207;42.648;23.406;2023-11-19T06:18:11;14.10;;;8.80;;
6348;SDS011;3207;42.648;23.406;2023-11-19T06:20:38;13.47;;;9.63;;
6348;SDS011;3207;42.648;23.406;2023-11-19T06:23:04;19.53;;;10.10;;
6348;SDS011;3207;42.648;23.406;2023-11-19T06:25:31;13.13;;;9.77;;
6348;SDS011;3207;42.648;23.406;2023-11-19T06:28:00;15.33;;;9.87;;
6348;SDS011;3207;42.648;23.406;2023-11-19T06:30:28;16.17;;;11.17;;
6348;SDS011;3207;42.648;23.406;2023-11-19T06:32:56;12.40;;;9.47;;
6348;SDS011;3207;42.648;23.406;2023-11-19T06:35:22;13.53;;;9.43;;
6348;SDS011;3207;42.648;23.406;2023-11-19T06:37:49;16.10;;;11.47;;
6348;SDS011;3207;42.648;23.406;2023-11-19T06:40:16;14.17;;;10.20;;
6348;SDS011;3207;42.648;23.406;2023-11-19T06:42:42;13.57;;;9.93;;
6348;SDS011;3207;42.648;23.406;2023-11-19T06:45:09;15.57;;;10.47;;
6348;SDS011;3207;42.648;23.406;2023-11-19T06:47:37;16.47;;;10.47;;
6348;SDS011;3207;42.648;23.406;2023-11-19T06:50:04;16.00;;;10.93;;
6348;SDS011;3207;42.648;23.406;2023-11-19T06:52:32;13.93;;;10.60;;
6348;SDS011;3207;42.648;23.406;2023-11-19T06:54:58;15.27;;;11.07;;
6348;SDS011;3207;42.648;23.406;2023-11-19T06:57:25;18.47;;;11.97;;
6348;SDS011;3207;42.648;23.406;2023-11-19T06:59:53;17.77;;;11.03;;
6348;SDS011;3207;42.648;23.406;2023-11-19T07:02:20;14.13;;;10.57;;
6348;SDS011;3207;42.648;23.406;2023-11-19T07:04:48;15.37;;;10.80;;
6348;SDS011;3207;42.648;23.406;2023-11-19T07:07:14;14.33;;;10.47;;
6348;SDS011;3207;42.648;23.406;2023-11-19T07:09:41;14.80;;;10.93;;
6348;SDS011;3207;42.648;23.406;2023-11-19T07:12:07;16.33;;;10.80;;
6348;SDS011;3207;42.648;23.406;2023-11-19T07:14:34;12.93;;;10.40;;
6348;SDS011;3207;42.648;23.406;2023-11-19T07:17:01;15.17;;;12.13;;
6348;SDS011;3207;42.648;23.406;2023-11-19T07:19:27;14.27;;;10.20;;
6348;SDS011;3207;42.648;23.406;2023-11-19T07:21:55;13.40;;;10.23;;
6348;SDS011;3207;42.648;23.406;2023-11-19T07:24:22;13.00;;;9.93;;
6348;SDS011;3207;42.648;23.406;2023-11-19T07:26:49;17.43;;;11.23;;
6348;SDS011;3207;42.648;23.406;2023-11-19T07:29:17;16.97;;;11.00;;
6348;SDS011;3207;42.648;23.406;2023-11-19T07:31:43;15.53;;;10.60;;
6348;SDS011;3207;42.648;23.406;2023-11-19T07:34:10;15.03;;;9.80;;
6348;SDS011;3207;42.648;23.406;2023-11-19T07:36:37;16.47;;;11.23;;
6348;SDS011;3207;42.648;23.406;2023-11-19T07:39:05;16.37;;;10.83;;
6348;SDS011;3207;42.648;23.406;2023-11-19T07:41:32;15.90;;;10.80;;
6348;SDS011;3207;42.648;23.406;2023-11-19T07:43:58;14.57;;;11.77;;
6348;SDS011;3207;42.648;23.406;2023-11-19T07:46:25;21.10;;;11.90;;
6348;SDS011;3207;42.648;23.406;2023-11-19T07:48:52;16.40;;;11.70;;
6348;SDS011;3207;42.648;23.406;2023-11-19T07:51:18;15.33;;;11.23;;
6348;SDS011;3207;42.648;23.406;2023-11-19T07:53:45;20.60;;;12.87;;
6348;SDS011;3207;42.648;23.406;2023-11-19T07:56:13;15.10;;;11.17;;
6348;SDS011;3207;42.648;23.406;2023-11-19T07:58:40;15.47;;;11.83;;
6348;SDS011;3207;42.648;23.406;2023-11-19T08:01:07;18.80;;;12.87;;
6348;SDS011;3207;42.648;23.406;2023-11-19T08:03:33;20.07;;;12.80;;
6348;SDS011;3207;42.648;23.406;2023-11-19T08:06:00;17.90;;;12.10;;
6348;SDS011;3207;42.648;23.406;2023-11-19T08:08:27;19.17;;;13.07;;
6348;SDS011;3207;42.648;23.406;2023-11-19T08:10:54;21.57;;;13.90;;
6348;SDS011;3207;42.648;23.406;2023-11-19T08:13:23;22.40;;;12.50;;
6348;SDS011;3207;42.648;23.406;2023-11-19T08:15:49;17.50;;;11.47;;
6348;SDS011;3207;42.648;23.406;2023-11-19T08:18:16;14.73;;;12.50;;
6348;SDS011;3207;42.648;23.406;2023-11-19T08:20:43;17.87;;;11.87;;
6348;SDS011;3207;42.648;23.406;2023-11-19T08:23:10;19.23;;;12.90;;
6348;SDS011;3207;42.648;23.406;2023-11-19T08:25:38;13.40;;;11.03;;
6348;SDS011;3207;42.648;23.406;2023-11-19T08:28:04;18.97;;;12.00;;
6348;SDS011;3207;42.648;23.406;2023-11-19T08:30:32;15.63;;;10.80;;
6348;SDS011;3207;42.648;23.406;2023-11-19T08:32:59;18.10;;;12.00;;
6348;SDS011;3207;42.648;23.406;2023-11-19T08:35:28;16.73;;;13.10;;
6348;SDS011;3207;42.648;23.406;2023-11-19T08:37:55;16.40;;;11.83;;
6348;SDS011;3207;42.648;23.406;2023-11-19T08:40:22;18.17;;;13.63;;
6348;SDS011;3207;42.648;23.406;2023-11-19T08:42:49;18.27;;;12.57;;
6348;SDS011;3207;42.648;23.406;2023-11-19T08:45:15;15.97;;;12.30;;
6348;SDS011;3207;42.648;23.406;2023-11-19T08:47:43;16.23;;;12.33;;
6348;SDS011;3207;42.648;23.406;2023-11-19T08:50:10;19.33;;;13.50;;
6348;SDS011;3207;42.648;23.406;2023-11-19T08:52:37;23.07;;;15.03;;
6348;SDS011;3207;42.648;23.406;2023-11-19T08:55:04;21.07;;;13.30;;
6348;SDS011;3207;42.648;23.406;2023-11-19T08:57:31;24.10;;;15.60;;
6348;SDS011;3207;42.648;23.406;2023-11-19T08:59:58;20.73;;;13.97;;
6348;SDS011;3207;42.648;23.406;2023-11-19T09:02:24;34.77;;;18.90;;
6348;SDS011;3207;42.648;23.406;2023-11-19T09:04:52;22.27;;;14.13;;
6348;SDS011;3207;42.648;23.406;2023-11-19T09:07:19;21.50;;;13.73;;
6348;SDS011;3207;42.648;23.406;2023-11-19T09:09:46;19.80;;;13.27;;
6348;SDS011;3207;42.648;23.406;2023-11-19T09:12:13;19.87;;;14.33;;
6348;SDS011;3207;42.648;23.406;2023-11-19T09:14:40;17.27;;;12.60;;
6348;SDS011;3207;42.648;23.406;2023-11-19T09:17:07;18.07;;;12.53;;
6348;SDS011;3207;42.648;23.406;2023-11-19T09:19:34;15.27;;;10.57;;
6348;SDS011;3207;42.648;23.406;2023-11-19T09:22:02;13.83;;;10.57;;
6348;SDS011;3207;42.648;23.406;2023-11-19T09:24:29;17.37;;;9.23;;
6348;SDS011;3207;42.648;23.406;2023-11-19T09:26:55;13.07;;;9.37;;
6348;SDS011;3207;42.648;23.406;2023-11-19T09:29:22;12.17;;;9.77;;
6348;SDS011;3207;42.648;23.406;2023-11-19T09:31:49;11.77;;;9.10;;
6348;SDS011;3207;42.648;23.406;2023-11-19T09:34:15;12.40;;;8.67;;
6348;SDS011;3207;42.648;23.406;2023-11-19T09:36:42;12.73;;;10.40;;
6348;SDS011;3207;42.648;23.406;2023-11-19T09:39:10;15.00;;;11.02;;
6348;SDS011;3207;42.648;23.406;2023-11-19T09:41:38;14.63;;;10.70;;
6348;SDS011;3207;42.648;23.406;2023-11-19T09:44:04;13.52;;;9.73;;
6348;SDS011;3207;42.648;23.406;2023-11-19T09:46:31;12.15;;;9.38;;
6348;SDS011;3207;42.648;23.406;2023-11-19T09:48:59;10.52;;;9.02;;
6348;SDS011;3207;42.648;23.406;2023-11-19T09:51:25;12.43;;;9.10;;
6348;SDS011;3207;42.648;23.406;2023-11-19T09:53:52;12.35;;;9.48;;
6348;SDS011;3207;42.648;23.406;2023-11-19T09:56:20;12.68;;;9.45;;
6348;SDS011;3207;42.648;23.406;2023-11-19T09:58:47;12.35;;;9.07;;
6348;SDS011;3207;42.648;23.406;2023-11-19T10:01:14;10.65;;;8.48;;
6348;SDS011;3207;42.648;23.406;2023-11-19T10:03:40;10.68;;;8.98;;
6348;SDS011;3207;42.648;23.406;2023-11-19T10:06:09;12.77;;;10.23;;
6348;SDS011;3207;42.648;23.406;2023-11-19T10:08:36;13.70;;;9.02;;
6348;SDS011;3207;42.648;23.406;2023-11-19T10:11:04;13.57;;;9.80;;
6348;SDS011;3207;42.648;23.406;2023-11-19T10:13:32;13.45;;;8.75;;
6348;SDS011;3207;42.648;23.406;2023-11-19T10:16:03;11.02;;;9.15;;
6348;SDS011;3207;42.648;23.406;2023-11-19T10:18:30;14.35;;;8.80;;
6348;SDS011;3207;42.648;23.406;2023-11-19T10:21:03;10.38;;;8.68;;
6348;SDS011;3207;42.648;23.406;2023-11-19T10:23:29;10.93;;;8.30;;
6348;SDS011;3207;42.648;23.406;2023-11-19T10:25:56;10.98;;;8.75;;
6348;SDS011;3207;42.648;23.406;2023-11-19T10:28:28;11.18;;;8.63;;
6348;SDS011;3207;42.648;23.406;2023-11-19T10:31:03;10.82;;;9.15;;
6348;SDS011;3207;42.648;23.406;2023-11-19T10:33:31;11.27;;;8.85;;
6348;SDS011;3207;42.648;23.406;2023-11-19T10:35:57;11.50;;;9.27;;
6348;SDS011;3207;42.648;23.406;2023-11-19T10:38:25;12.65;;;9.50;;
6348;SDS011;3207;42.648;23.406;2023-11-19T10:40:52;12.68;;;9.88;;
6348;SDS011;3207;42.648;23.406;2023-11-19T10:43:19;13.20;;;10.13;;
6348;SDS011;3207;42.648;23.406;2023-11-19T10:45:47;15.10;;;10.57;;
6348;SDS011;3207;42.648;23.406;2023-11-19T10:48:15;16.30;;;10.75;;
6348;SDS011;3207;42.648;23.406;2023-11-19T10:50:43;11.18;;;9.85;;
6348;SDS011;3207;42.648;23.406;2023-11-19T10:53:10;16.10;;;11.43;;
6348;SDS011;3207;42.648;23.406;2023-11-19T10:55:38;16.00;;;11.10;;
6348;SDS011;3207;42.648;23.406;2023-11-19T10:58:05;12.25;;;10.27;;
6348;SDS011;3207;42.648;23.406;2023-11-19T11:00:34;15.33;;;10.10;;
6348;SDS011;3207;42.648;23.406;2023-11-19T11:03:05;15.90;;;10.60;;
6348;SDS011;3207;42.648;23.406;2023-11-19T11:05:36;10.80;;;9.30;;
6348;SDS011;3207;42.648;23.406;2023-11-19T11:08:04;11.88;;;9.80;;
6348;SDS011;3207;42.648;23.406;2023-11-19T11:10:33;11.67;;;9.70;;
6348;SDS011;3207;42.648;23.406;2023-11-19T11:13:02;12.57;;;9.90;;
6348;SDS011;3207;42.648;23.406;2023-11-19T11:15:30;13.10;;;10.03;;
6348;SDS011;3207;42.648;23.406;2023-11-19T11:17:58;14.53;;;10.50;;
6348;SDS011;3207;42.648;23.406;2023-11-19T11:20:26;15.40;;;10.87;;
6348;SDS011;3207;42.648;23.406;2023-11-19T11:22:57;17.63;;;11.10;;
6348;SDS011;3207;42.648;23.406;2023-11-19T11:25:30;11.53;;;9.80;;
6348;SDS011;3207;42.648;23.406;2023-11-19T11:28:11;12.93;;;9.97;;
6348;SDS011;3207;42.648;23.406;2023-11-19T11:30:45;17.43;;;11.13;;
6348;SDS011;3207;42.648;23.406;2023-11-19T11:33:19;13.73;;;10.20;;
6348;SDS011;3207;42.648;23.406;2023-11-19T11:35:49;13.77;;;10.33;;
6348;SDS011;3207;42.648;23.406;2023-11-19T11:38:21;11.95;;;9.20;;
6348;SDS011;3207;42.648;23.406;2023-11-19T11:43:47;12.83;;;9.80;;
6348;SDS011;3207;42.648;23.406;2023-11-19T11:49:00;13.33;;;10.80;;
6348;SDS011;3207;42.648;23.406;2023-11-19T11:54:10;15.03;;;10.83;;
6348;SDS011;3207;42.648;23.406;2023-11-19T11:56:37;13.67;;;11.30;;
6348;SDS011;3207;42.648;23.406;2023-11-19T11:59:05;16.15;;;11.25;;
6348;SDS011;3207;42.648;23.406;2023-11-19T12:01:33;14.63;;;10.23;;
6348;SDS011;3207;42.648;23.406;2023-11-19T12:04:01;15.77;;;12.30;;
6348;SDS011;3207;42.648;23.406;2023-11-19T12:06:28;17.23;;;11.00;;
6348;SDS011;3207;42.648;23.406;2023-11-19T12:08:57;14.30;;;10.35;;
6348;SDS011;3207;42.648;23.406;2023-11-19T12:11:27;17.43;;;10.60;;
6348;SDS011;3207;42.648;23.406;2023-11-19T12:13:58;15.48;;;11.25;;
6348;SDS011;3207;42.648;23.406;2023-11-19T12:16:27;17.20;;;12.27;;
6348;SDS011;3207;42.648;23.406;2023-11-19T12:18:54;18.00;;;11.40;;
6348;SDS011;3207;42.648;23.406;2023-11-19T12:21:27;19.35;;;12.90;;
6348;SDS011;3207;42.648;23.406;2023-11-19T12:23:55;17.15;;;12.68;;
6348;SDS011;3207;42.648;23.406;2023-11-19T12:26:35;16.10;;;11.85;;
6348;SDS011;3207;42.648;23.406;2023-11-19T12:29:02;16.05;;;12.60;;
6348;SDS011;3207;42.648;23.406;2023-11-19T12:31:32;17.63;;;12.05;;
6348;SDS011;3207;42.648;23.406;2023-11-19T12:34:05;15.48;;;11.82;;
6348;SDS011;3207;42.648;23.406;2023-11-19T12:36:32;17.48;;;12.05;;
6348;SDS011;3207;42.648;23.406;2023-11-19T12:38:58;16.05;;;12.05;;
6348;SDS011;3207;42.648;23.406;2023-11-19T12:41:25;15.63;;;11.88;;
6348;SDS011;3207;42.648;23.406;2023-11-19T12:43:54;15.15;;;11.57;;
6348;SDS011;3207;42.648;23.406;2023-11-19T12:46:20;15.38;;;11.55;;
6348;SDS011;3207;42.648;23.406;2023-11-19T12:48:47;15.65;;;11.43;;
6348;SDS011;3207;42.648;23.406;2023-11-19T12:51:14;15.82;;;12.18;;
6348;SDS011;3207;42.648;23.406;2023-11-19T12:53:47;14.77;;;11.40;;
6348;SDS011;3207;42.648;23.406;2023-11-19T12:56:14;15.93;;;12.50;;
6348;SDS011;3207;42.648;23.406;2023-11-19T12:58:41;14.07;;;11.43;;
6348;SDS011;3207;42.648;23.406;2023-11-19T13:01:09;14.25;;;10.65;;
6348;SDS011;3207;42.648;23.406;2023-11-19T13:03:36;14.48;;;11.60;;
6348;SDS011;3207;42.648;23.406;2023-11-19T13:06:04;16.27;;;12.82;;
6348;SDS011;3207;42.648;23.406;2023-11-19T13:08:36;14.80;;;12.73;;
6348;SDS011;3207;42.648;23.406;2023-11-19T13:11:04;16.67;;;12.43;;
6348;SDS011;3207;42.648;23.406;2023-11-19T13:13:31;18.30;;;14.18;;
6348;SDS011;3207;42.648;23.406;2023-11-19T13:16:01;15.05;;;12.02;;
6348;SDS011;3207;42.648;23.406;2023-11-19T13:18:29;14.20;;;11.35;;
6348;SDS011;3207;42.648;23.406;2023-11-19T13:20:56;14.38;;;11.40;;
6348;SDS011;3207;42.648;23.406;2023-11-19T13:23:23;14.90;;;11.35;;
6348;SDS011;3207;42.648;23.406;2023-11-19T13:25:50;15.90;;;12.45;;
6348;SDS011;3207;42.648;23.406;2023-11-19T13:28:16;17.42;;;11.15;;
6348;SDS011;3207;42.648;23.406;2023-11-19T13:30:43;13.85;;;10.82;;
6348;SDS011;3207;42.648;23.406;2023-11-19T13:33:10;14.50;;;9.93;;
6348;SDS011;3207;42.648;23.406;2023-11-19T13:35:38;15.48;;;10.38;;
6348;SDS011;3207;42.648;23.406;2023-11-19T13:38:06;13.30;;;10.15;;
6348;SDS011;3207;42.648;23.406;2023-11-19T13:40:33;12.98;;;10.77;;
6348;SDS011;3207;42.648;23.406;2023-11-19T13:43:00;12.52;;;10.27;;
6348;SDS011;3207;42.648;23.406;2023-11-19T13:45:27;13.55;;;10.82;;
6348;SDS011;3207;42.648;23.406;2023-11-19T13:47:53;12.98;;;10.98;;
6348;SDS011;3207;42.648;23.406;2023-11-19T13:50:20;14.88;;;11.63;;
6348;SDS011;3207;42.648;23.406;2023-11-19T13:52:49;15.23;;;11.52;;
6348;SDS011;3207;42.648;23.406;2023-11-19T13:55:16;12.30;;;10.52;;
6348;SDS011;3207;42.648;23.406;2023-11-19T13:57:43;12.15;;;10.77;;
6348;SDS011;3207;42.648;23.406;2023-11-19T14:00:10;13.90;;;10.43;;
6348;SDS011;3207;42.648;23.406;2023-11-19T14:02:38;12.13;;;10.35;;
6348;SDS011;3207;42.648;23.406;2023-11-19T14:05:05;13.05;;;10.90;;
6348;SDS011;3207;42.648;23.406;2023-11-19T14:07:31;14.27;;;10.93;;
6348;SDS011;3207;42.648;23.406;2023-11-19T14:10:00;12.57;;;9.68;;
6348;SDS011;3207;42.648;23.406;2023-11-19T14:12:26;13.15;;;10.68;;
6348;SDS011;3207;42.648;23.406;2023-11-19T14:14:53;14.43;;;10.57;;
6348;SDS011;3207;42.648;23.406;2023-11-19T14:17:20;11.80;;;10.02;;
6348;SDS011;3207;42.648;23.406;2023-11-19T14:19:46;10.45;;;9.15;;
6348;SDS011;3207;42.648;23.406;2023-11-19T14:22:13;12.15;;;10.10;;
6348;SDS011;3207;42.648;23.406;2023-11-19T14:24:40;13.85;;;10.13;;
6348;SDS011;3207;42.648;23.406;2023-11-19T14:27:09;11.52;;;10.10;;
6348;SDS011;3207;42.648;23.406;2023-11-19T14:29:36;13.77;;;11.05;;
6348;SDS011;3207;42.648;23.406;2023-11-19T14:32:02;20.50;;;12.60;;
6348;SDS011;3207;42.648;23.406;2023-11-19T14:34:29;16.92;;;12.85;;
6348;SDS011;3207;42.648;23.406;2023-11-19T14:36:56;13.60;;;10.35;;
6348;SDS011;3207;42.648;23.406;2023-11-19T14:39:23;16.23;;;10.95;;
6348;SDS011;3207;42.648;23.406;2023-11-19T14:41:48;16.95;;;12.43;;
6348;SDS011;3207;42.648;23.406;2023-11-19T14:44:17;17.00;;;12.48;;
6348;SDS011;3207;42.648;23.406;2023-11-19T14:46:45;14.73;;;12.32;;
6348;SDS011;3207;42.648;23.406;2023-11-19T14:49:11;17.55;;;11.25;;
6348;SDS011;3207;42.648;23.406;2023-11-19T14:51:39;22.02;;;14.50;;
6348;SDS011;3207;42.648;23.406;2023-11-19T14:54:05;19.52;;;13.90;;